Time;durP1;ratioP1;P1;durP2;ratioP2;P2;SDS_P1;SDS_P2;PMS_P1;PMS_P2;Temp;Humidity;BMP_temperature;BMP_pressure;BME280_temperature;BME280_humidity;BME280_pressure;Samples;Min_cycle;Max_cycle;Signal;HPM_P1;HPM_P2
2023/07/28 00:00:01;;;;;;;423.70;378.42;;;;;;;21.04;46.04;99517.69;343253;28;1221;-81
2023/07/28 00:00:12;;;;;;;421.67;376.43;;;;;;;21.05;46.34;99520.22;344998;28;1354;-81
2023/07/28 00:00:22;;;;;;;415.92;370.83;;;;;;;21.03;46.00;99518.66;342275;28;1388;-81
2023/07/28 00:00:33;;;;;;;412.17;367.20;;;;;;;20.97;46.33;99519.19;341447;28;1226;-81
2023/07/28 00:00:43;;;;;;;411.00;366.10;;;;;;;20.95;46.26;99521.13;341145;28;1305;-81
2023/07/28 00:00:54;;;;;;;413.60;368.85;;;;;;;20.92;45.94;99512.44;340830;28;1370;-80
2023/07/28 00:01:04;;;;;;;415.80;371.10;;;;;;;20.92;46.55;99522.25;344696;28;1309;-81
2023/07/28 00:01:15;;;;;;;416.55;371.88;;;;;;;20.91;46.49;99521.41;343946;28;1319;-81
2023/07/28 00:01:26;;;;;;;413.43;368.90;;;;;;;20.95;46.46;99518.47;343419;28;1342;-81
2023/07/28 00:01:37;;;;;;;415.33;370.83;;;;;;;20.95;46.11;99511.34;343663;28;757;-81
2023/07/28 00:01:47;;;;;;;430.13;384.90;;;;;;;20.97;46.35;99522.69;344749;28;1211;-81
2023/07/28 00:01:57;;;;;;;429.75;384.45;;;;;;;20.98;46.23;99521.72;342403;28;1593;-81
2023/07/28 00:02:08;;;;;;;431.60;386.03;;;;;;;21.00;46.43;99519.78;339446;29;1206;-81
2023/07/28 00:02:18;;;;;;;430.60;385.00;;;;;;;21.00;46.43;99519.78;340989;28;1366;-81
2023/07/28 00:02:29;;;;;;;430.02;384.38;;;;;;;21.00;46.27;99518.94;339735;28;1748;-81
2023/07/28 00:02:39;;;;;;;436.43;390.53;;;;;;;21.00;46.29;99513.59;339111;29;1924;-81
2023/07/28 00:02:49;;;;;;;424.50;379.00;;;;;;;20.99;46.55;99519.91;337005;29;1381;-81
2023/07/28 00:03:00;;;;;;;426.17;380.63;;;;;;;20.98;46.35;99515.56;338174;29;952;-81
2023/07/28 00:03:11;;;;;;;429.10;383.67;;;;;;;20.96;46.39;99517.50;339321;29;1494;-82
2023/07/28 00:03:21;;;;;;;433.57;388.20;;;;;;;20.89;46.26;99511.84;335658;29;1258;-81
2023/07/28 00:03:32;;;;;;;432.23;386.98;;;;;;;20.88;46.38;99519.00;337634;29;1463;-82
2023/07/28 00:03:42;;;;;;;425.00;380.13;;;;;;;20.91;46.29;99509.91;335037;29;1732;-81
2023/07/28 00:03:52;;;;;;;429.43;384.30;;;;;;;20.90;46.22;99517.06;330636;29;1262;-81
2023/07/28 00:04:06;;;;;;;429.80;384.37;;;;;;;20.92;46.40;99522.25;335045;29;1701;-81
2023/07/28 00:04:17;;;;;;;429.38;383.83;;;;;;;20.91;46.48;99516.06;333910;29;1931;-80
2023/07/28 00:04:27;;;;;;;423.40;377.90;;;;;;;20.92;46.41;99514.25;332268;29;2299;-80
2023/07/28 00:04:38;;;;;;;425.63;380.03;;;;;;;20.92;46.18;99520.44;332316;29;1189;-80
2023/07/28 00:04:48;;;;;;;419.83;374.27;;;;;;;20.90;46.48;99517.06;333659;29;2160;-80
2023/07/28 00:04:59;;;;;;;421.03;375.63;;;;;;;20.87;46.54;99519.13;335277;29;1611;-80
2023/07/28 00:05:09;;;;;;;421.08;375.73;;;;;;;20.85;46.33;99516.59;336233;29;1242;-80
2023/07/28 00:05:19;;;;;;;419.37;374.13;;;;;;;20.83;46.43;99518.53;337004;29;807;-80
2023/07/28 00:05:30;;;;;;;415.48;370.42;;;;;;;20.77;46.85;99513.78;333824;29;1444;-81
2023/07/28 00:05:40;;;;;;;418.80;373.70;;;;;;;20.81;46.49;99516.97;331689;29;1975;-80
2023/07/28 00:05:51;;;;;;;418.25;373.17;;;;;;;20.81;46.61;99515.16;331736;29;1213;-80
2023/07/28 00:06:01;;;;;;;420.10;374.70;;;;;;;20.82;46.55;99516.84;333248;29;2518;-81
2023/07/28 00:06:12;;;;;;;423.17;377.65;;;;;;;20.83;46.76;99513.22;328755;29;2190;-80
2023/07/28 00:06:22;;;;;;;430.37;384.57;;;;;;;20.84;46.39;99514.91;327870;30;1380;-81
2023/07/28 00:06:33;;;;;;;432.13;386.38;;;;;;;20.84;46.60;99517.56;332345;29;2490;-81
2023/07/28 00:06:43;;;;;;;427.50;381.73;;;;;;;20.87;46.45;99529.78;330006;29;2373;-80
2023/07/28 00:06:54;;;;;;;426.45;380.73;;;;;;;20.88;46.45;99516.34;325724;30;1303;-80
2023/07/28 00:07:04;;;;;;;424.70;379.03;;;;;;;20.82;46.56;99516.84;327514;30;2452;-81
2023/07/28 00:07:15;;;;;;;423.13;377.85;;;;;;;20.80;46.78;99517.94;327045;30;1685;-80
2023/07/28 00:07:25;;;;;;;419.73;374.83;;;;;;;20.80;46.46;99521.47;326751;30;1678;-80
2023/07/28 00:07:36;;;;;;;422.07;377.10;;;;;;;20.81;46.49;99520.47;329614;30;962;-81
2023/07/28 00:07:46;;;;;;;419.80;374.77;;;;;;;20.83;46.59;99517.69;326745;30;2033;-80
2023/07/28 00:07:57;;;;;;;418.33;373.33;;;;;;;20.81;46.60;99515.16;324227;30;2614;-80
2023/07/28 00:08:07;;;;;;;414.63;369.92;;;;;;;20.80;46.67;99513.47;324385;30;1284;-80
2023/07/28 00:08:18;;;;;;;421.13;376.20;;;;;;;20.80;46.52;99518.81;322309;30;3298;-80
2023/07/28 00:08:28;;;;;;;429.42;384.30;;;;;;;20.72;46.76;99521.28;320530;30;3097;-80
2023/07/28 00:08:38;;;;;;;435.97;390.53;;;;;;;20.70;47.01;99520.56;317477;31;1190;-81
2023/07/28 00:08:49;;;;;;;437.23;391.63;;;;;;;20.69;47.03;99521.53;317666;30;3498;-80
2023/07/28 00:08:59;;;;;;;434.30;388.83;;;;;;;20.72;46.79;99521.28;315157;30;3146;-81
2023/07/28 00:09:10;;;;;;;434.30;388.73;;;;;;;20.72;47.09;99515.97;315255;31;889;-81
2023/07/28 00:09:22;;;;;;;430.00;384.48;;;;;;;20.70;47.19;99528.56;312959;31;1270;-81
2023/07/28 00:09:33;;;;;;;426.70;381.15;;;;;;;20.71;46.95;99524.06;313526;31;2415;-81
2023/07/28 00:09:43;;;;;;;428.02;382.48;;;;;;;20.74;47.08;99524.66;310609;31;2325;-80
2023/07/28 00:09:54;;;;;;;427.50;381.93;;;;;;;20.75;47.00;99518.38;306369;32;1235;-80
2023/07/28 00:10:04;;;;;;;432.88;386.88;;;;;;;20.77;46.73;99524.41;307702;31;2701;-80
2023/07/28 00:10:15;;;;;;;426.13;380.23;;;;;;;20.79;46.71;99527.78;307924;31;3152;-81
2023/07/28 00:10:25;;;;;;;429.23;383.30;;;;;;;20.79;46.94;99522.47;306499;32;5123;-79
2023/07/28 00:10:42;;;;;;;429.25;383.58;;;;;;;20.77;46.79;99519.09;303498;32;1336;-81
2023/07/28 00:10:52;;;;;;;436.08;390.77;;;;;;;20.78;46.98;99523.44;302149;32;899;-79
2023/07/28 00:11:02;;;;;;;430.87;385.80;;;;;;;20.76;46.59;99522.72;304166;32;5083;-81
2023/07/28 00:11:14;;;;;;;433.23;388.00;;;;;;;20.76;46.74;99522.72;301280;32;4612;-80
2023/07/28 00:11:24;;;;;;;425.65;380.48;;;;;;;20.76;46.78;99520.06;300074;32;1313;-79
2023/07/28 00:11:34;;;;;;;426.63;381.52;;;;;;;20.81;46.94;99522.31;301627;32;4411;-80
2023/07/28 00:11:45;;;;;;;423.30;378.27;;;;;;;20.82;46.81;99522.19;300940;32;3346;-79
2023/07/28 00:11:57;;;;;;;427.02;382.00;;;;;;;20.80;46.66;99513.47;298265;32;3558;-80
2023/07/28 00:12:08;;;;;;;431.40;386.17;;;;;;;20.79;46.44;99527.78;301079;32;1293;-80
2023/07/28 00:12:18;;;;;;;437.80;392.40;;;;;;;20.77;46.90;99518.25;295439;33;4107;-81
2023/07/28 00:12:29;;;;;;;440.38;395.00;;;;;;;20.80;46.25;99529.44;294561;32;5059;-80
2023/07/28 00:12:39;;;;;;;450.13;404.47;;;;;;;20.79;46.92;99525.13;297249;33;1330;-80
2023/07/28 00:12:49;;;;;;;449.33;403.42;;;;;;;20.76;47.07;99524.53;294067;33;7189;-80
2023/07/28 00:13:02;;;;;;;450.80;404.73;;;;;;;20.77;47.03;99519.09;290849;33;6036;-80
2023/07/28 00:13:12;;;;;;;443.86;397.96;;;;;;;20.80;46.95;99517.94;287834;34;7417;-80
2023/07/28 00:13:23;;;;;;;450.00;404.00;;;;;;;20.81;46.94;99525.81;283810;34;1313;-81
2023/07/28 00:13:33;;;;;;;456.30;409.77;;;;;;;20.83;46.93;99515.88;286168;34;5319;-80
2023/07/28 00:13:43;;;;;;;470.70;423.77;;;;;;;20.86;46.59;99520.94;286084;34;6097;-80
2023/07/28 00:13:54;;;;;;;466.37;419.60;;;;;;;20.87;46.44;99519.97;285483;34;1221;-80
2023/07/28 00:14:04;;;;;;;464.95;418.75;;;;;;;20.87;46.79;99525.28;285087;34;4609;-80
2023/07/28 00:14:15;;;;;;;457.40;411.43;;;;;;;20.86;46.52;99525.41;280047;34;5893;-80
2023/07/28 00:14:26;;;;;;;455.38;409.45;;;;;;;20.87;46.59;99525.28;275457;35;6502;-80
2023/07/28 00:14:37;;;;;;;456.50;410.60;;;;;;;20.81;46.87;99525.81;273399;36;1771;-81
2023/07/28 00:14:47;;;;;;;459.40;413.42;;;;;;;20.81;47.03;99522.31;270957;36;7599;-80
2023/07/28 00:14:59;;;;;;;459.47;413.53;;;;;;;20.81;46.72;99531.13;269122;36;9920;-80
2023/07/28 00:17:15;;;;;;;429.64;383.55;;;;;;;20.76;46.98;99521.88;2502829;27;20908;-81
2023/07/28 00:17:25;;;;;;;468.17;422.27;;;;;;;20.71;47.41;99524.06;351701;28;1218;-80
2023/07/28 00:17:36;;;;;;;471.25;425.08;;;;;;;20.66;47.31;99527.13;349159;28;819;-80
2023/07/28 00:17:46;;;;;;;471.33;425.10;;;;;;;20.67;47.28;99522.66;348229;28;1392;-81
2023/07/28 00:17:57;;;;;;;464.40;418.70;;;;;;;20.69;47.39;99518.88;349564;28;1232;-80
2023/07/28 00:18:07;;;;;;;470.88;425.13;;;;;;;20.73;47.32;99527.47;348538;28;1252;-80
2023/07/28 00:18:21;;;;;;;474.20;428.33;;;;;;;20.73;47.48;99520.31;347521;28;1215;-81
2023/07/28 00:18:31;;;;;;;473.67;427.75;;;;;;;20.73;47.14;99522.97;349147;28;1457;-81
2023/07/28 00:18:42;;;;;;;465.95;420.20;;;;;;;20.71;47.12;99526.75;349014;28;1207;-82
2023/07/28 00:18:52;;;;;;;463.90;418.23;;;;;;;20.74;47.06;99523.81;349249;28;1350;-80
2023/07/28 00:19:03;;;;;;;469.25;423.27;;;;;;;20.75;47.23;99523.69;348895;28;1257;-80
2023/07/28 00:19:13;;;;;;;466.52;420.45;;;;;;;20.77;46.95;99524.41;350145;28;1282;-81
2023/07/28 00:19:24;;;;;;;468.83;422.70;;;;;;;20.79;47.33;99533.09;351151;28;1202;-81
2023/07/28 00:19:34;;;;;;;470.48;424.48;;;;;;;20.80;47.31;99528.59;350270;28;1341;-80
2023/07/28 00:19:45;;;;;;;473.50;427.53;;;;;;;20.82;46.83;99519.50;347764;28;1248;-80
2023/07/28 00:19:55;;;;;;;475.63;429.55;;;;;;;20.83;47.18;99518.53;347534;28;1320;-80
2023/07/28 00:20:06;;;;;;;487.80;441.23;;;;;;;20.82;47.42;99521.34;347496;28;1284;-81
2023/07/28 00:20:17;;;;;;;491.55;444.90;;;;;;;20.80;47.32;99524.13;346315;28;975;-81
2023/07/28 00:20:28;;;;;;;486.08;439.55;;;;;;;20.79;47.02;99521.63;346603;28;1289;-81
2023/07/28 00:20:38;;;;;;;479.13;432.75;;;;;;;20.77;47.32;99523.56;347599;28;1254;-80
2023/07/28 00:20:49;;;;;;;479.10;432.67;;;;;;;20.75;47.23;99526.34;349272;28;1206;-80
2023/07/28 00:21:00;;;;;;;488.70;441.83;;;;;;;20.75;46.98;99526.34;347583;28;1300;-80
2023/07/28 00:21:10;;;;;;;491.35;444.52;;;;;;;20.75;47.19;99523.69;346192;28;962;-80
2023/07/28 00:21:20;;;;;;;491.43;444.53;;;;;;;20.76;47.01;99525.38;346081;28;1178;-80
2023/07/28 00:21:31;;;;;;;476.50;430.17;;;;;;;20.77;46.87;99526.22;343576;28;1283;-81
2023/07/28 00:21:41;;;;;;;476.83;430.50;;;;;;;20.79;47.01;99525.13;343452;28;1380;-80
2023/07/28 00:21:52;;;;;;;481.77;435.33;;;;;;;20.78;47.16;99519.94;343726;28;1355;-80
2023/07/28 00:22:02;;;;;;;487.40;440.67;;;;;;;20.81;47.19;99530.28;344666;28;1300;-80
2023/07/28 00:22:13;;;;;;;486.75;440.08;;;;;;;20.79;47.20;99519.81;346015;28;1247;-80
2023/07/28 00:22:23;;;;;;;484.43;437.67;;;;;;;20.79;47.11;99526.94;344946;28;1221;-81
2023/07/28 00:22:34;;;;;;;477.05;430.63;;;;;;;20.81;47.11;99530.28;346342;28;931;-80
2023/07/28 00:22:44;;;;;;;482.80;436.10;;;;;;;20.80;47.31;99526.78;347428;28;1208;-80
2023/07/28 00:22:54;;;;;;;485.48;438.92;;;;;;;20.82;47.05;99524.84;344038;28;1342;-80
2023/07/28 00:23:05;;;;;;;492.83;446.07;;;;;;;20.83;47.26;99529.19;342264;28;1277;-80
2023/07/28 00:23:15;;;;;;;490.60;443.97;;;;;;;20.81;47.01;99520.47;340286;29;1217;-80
2023/07/28 00:23:26;;;;;;;497.45;450.63;;;;;;;20.77;47.00;99524.41;342211;28;1364;-80
2023/07/28 00:23:36;;;;;;;500.60;453.70;;;;;;;20.78;47.09;99519.94;345521;28;1358;-80
2023/07/28 00:23:46;;;;;;;499.50;452.73;;;;;;;20.76;46.83;99528.03;344840;28;1296;-80
2023/07/28 00:23:57;;;;;;;493.73;447.03;;;;;;;20.73;47.02;99527.47;347222;28;1442;-80
2023/07/28 00:24:07;;;;;;;486.10;439.55;;;;;;;20.69;47.40;99531.34;345163;28;1322;-80
2023/07/28 00:24:18;;;;;;;479.13;432.67;;;;;;;20.67;47.49;99528.81;344936;28;1276;-80
2023/07/28 00:24:28;;;;;;;479.60;433.10;;;;;;;20.67;47.40;99523.50;344822;28;1394;-80
2023/07/28 00:24:39;;;;;;;478.97;432.50;;;;;;;20.66;47.26;99527.13;347424;28;1394;-80
2023/07/28 00:24:49;;;;;;;485.65;439.10;;;;;;;20.67;47.56;99522.66;347268;28;1204;-80
2023/07/28 00:25:00;;;;;;;488.80;442.17;;;;;;;20.66;47.34;99529.78;343582;28;1321;-80
2023/07/28 00:25:10;;;;;;;490.02;443.33;;;;;;;20.67;47.52;99531.47;344377;28;1693;-80
2023/07/28 00:25:22;;;;;;;482.83;436.17;;;;;;;20.64;47.27;99529.06;342190;28;1445;-80
2023/07/28 00:25:32;;;;;;;476.67;430.20;;;;;;;20.67;47.16;99526.16;340762;29;1448;-80
2023/07/28 00:25:43;;;;;;;471.77;425.33;;;;;;;20.68;47.43;99525.19;344941;28;1963;-80
2023/07/28 00:25:53;;;;;;;478.40;432.02;;;;;;;20.66;47.04;99520.97;342120;28;1824;-80
2023/07/28 00:26:03;;;;;;;485.70;439.03;;;;;;;20.66;47.07;99523.63;341131;28;1968;-81
2023/07/28 00:26:14;;;;;;;488.90;442.23;;;;;;;20.67;47.51;99527.97;339673;29;1420;-80
2023/07/28 00:26:24;;;;;;;488.03;441.30;;;;;;;20.66;47.31;99526.28;339690;29;1230;-80
2023/07/28 00:26:35;;;;;;;484.50;437.95;;;;;;;20.65;47.32;99522.78;339479;29;1357;-80
2023/07/28 00:26:45;;;;;;;482.03;435.43;;;;;;;20.64;47.48;99522.91;340815;29;1290;-81
2023/07/28 00:26:55;;;;;;;487.83;441.23;;;;;;;20.63;47.25;99524.72;341538;28;1296;-80
2023/07/28 00:27:06;;;;;;;487.97;441.27;;;;;;;20.60;47.47;99527.63;336917;29;1356;-81
2023/07/28 00:27:16;;;;;;;489.80;443.23;;;;;;;20.57;47.48;99525.22;334268;29;1254;-80
2023/07/28 00:27:27;;;;;;;480.88;434.63;;;;;;;20.58;47.69;99525.09;336272;29;1941;-80
2023/07/28 00:27:37;;;;;;;483.13;436.93;;;;;;;20.59;47.76;99525.94;336584;29;2229;-80
2023/07/28 00:27:48;;;;;;;481.05;434.95;;;;;;;20.59;47.70;99528.59;334314;29;1303;-81
2023/07/28 00:27:58;;;;;;;489.00;442.63;;;;;;;20.59;47.60;99526.78;340152;29;2284;-80
2023/07/28 00:28:09;;;;;;;493.67;447.17;;;;;;;20.54;47.54;99522.81;334984;29;1789;-80
2023/07/28 00:28:19;;;;;;;499.37;452.83;;;;;;;20.52;47.62;99519.44;330989;29;1570;-81
2023/07/28 00:28:29;;;;;;;492.70;446.42;;;;;;;20.52;47.64;99519.44;328778;30;1236;-80
2023/07/28 00:28:40;;;;;;;490.03;443.73;;;;;;;20.53;47.57;99521.13;331164;29;1239;-80
2023/07/28 00:28:50;;;;;;;485.80;439.50;;;;;;;20.55;47.71;99525.34;332908;29;1353;-80
2023/07/28 00:29:01;;;;;;;491.27;444.90;;;;;;;20.57;48.00;99522.56;331924;29;1302;-81
2023/07/28 00:29:11;;;;;;;491.47;445.07;;;;;;;20.56;47.65;99526.19;326851;29;1626;-80
2023/07/28 00:29:21;;;;;;;483.50;437.05;;;;;;;20.57;47.40;99528.72;324618;30;1862;-80
2023/07/28 00:29:32;;;;;;;481.40;434.87;;;;;;;20.57;47.82;99517.25;324516;30;1321;-80
2023/07/28 00:29:42;;;;;;;489.40;442.65;;;;;;;20.57;47.76;99523.41;331231;29;2410;-80
2023/07/28 00:29:52;;;;;;;496.80;449.97;;;;;;;20.58;47.55;99524.25;328313;29;2791;-80
2023/07/28 00:30:03;;;;;;;497.13;450.30;;;;;;;20.57;47.62;99523.41;324393;30;1388;-81
2023/07/28 00:30:14;;;;;;;495.10;448.47;;;;;;;20.58;47.53;99525.09;327489;30;2445;-80
2023/07/28 00:30:25;;;;;;;496.20;449.55;;;;;;;20.58;47.53;99516.28;328393;29;2219;-80
2023/07/28 00:30:35;;;;;;;488.15;441.55;;;;;;;20.60;47.91;99527.63;328091;30;1639;-80
2023/07/28 00:30:49;;;;;;;485.40;438.90;;;;;;;20.58;47.78;99522.44;330558;29;1245;-80
2023/07/28 00:30:59;;;;;;;487.13;440.63;;;;;;;20.55;47.50;99517.38;323596;30;1494;-80
2023/07/28 00:31:10;;;;;;;491.25;444.63;;;;;;;20.56;47.64;99520.88;323790;30;1562;-80
2023/07/28 00:31:20;;;;;;;486.30;439.73;;;;;;;20.55;47.81;99525.34;322279;30;2410;-80
2023/07/28 00:31:30;;;;;;;483.97;437.37;;;;;;;20.56;47.86;99520.88;322356;30;1295;-80
2023/07/28 00:31:41;;;;;;;483.75;437.00;;;;;;;20.56;48.07;99520.88;325626;30;2949;-80
2023/07/28 00:31:52;;;;;;;485.63;438.80;;;;;;;20.55;48.05;99525.34;323793;30;2997;-80
2023/07/28 00:32:03;;;;;;;485.17;438.38;;;;;;;20.57;47.91;99527.88;317425;31;1414;-80
2023/07/28 00:32:13;;;;;;;486.80;440.00;;;;;;;20.60;47.85;99517.00;321266;30;3461;-80
2023/07/28 00:32:24;;;;;;;494.80;447.90;;;;;;;20.61;47.84;99512.53;319151;30;4139;-80
2023/07/28 00:32:34;;;;;;;504.27;457.33;;;;;;;20.62;47.77;99515.06;318041;31;2836;-80
2023/07/28 00:32:44;;;;;;;496.90;450.10;;;;;;;20.58;47.57;99506.50;312975;31;1284;-80
2023/07/28 00:32:55;;;;;;;487.73;440.93;;;;;;;20.57;47.94;99512.78;318133;30;2586;-80
2023/07/28 00:33:05;;;;;;;481.57;434.87;;;;;;;20.57;47.89;99514.59;316594;31;1413;-80
2023/07/28 00:33:16;;;;;;;482.80;436.17;;;;;;;20.56;47.82;99518.22;315208;31;1176;-80
2023/07/28 00:33:26;;;;;;;480.40;434.25;;;;;;;20.54;47.79;99520.16;314134;31;2377;-80
2023/07/28 00:33:37;;;;;;;481.57;435.37;;;;;;;20.54;47.66;99517.50;312702;31;3247;-80
2023/07/28 00:33:48;;;;;;;478.67;432.52;;;;;;;20.55;47.83;99514.72;313344;31;847;-80
2023/07/28 00:33:58;;;;;;;489.97;443.33;;;;;;;20.52;47.82;99514.13;308866;31;3807;-80
2023/07/28 00:34:08;;;;;;;489.70;443.05;;;;;;;20.53;47.99;99508.69;306735;31;5146;-80
2023/07/28 00:34:20;;;;;;;495.30;448.30;;;;;;;20.54;47.76;99512.19;306750;31;4277;-80
2023/07/28 00:34:30;;;;;;;482.00;435.42;;;;;;;20.57;47.79;99514.59;307538;32;1504;-80
2023/07/28 00:34:41;;;;;;;478.37;431.77;;;;;;;20.57;47.88;99509.28;306315;31;4573;-80
2023/07/28 00:34:51;;;;;;;480.75;434.08;;;;;;;20.57;48.04;99511.94;304737;32;3952;-81
2023/07/28 00:35:02;;;;;;;495.20;448.33;;;;;;;20.58;47.78;99514.47;305473;32;1241;-81
2023/07/28 00:35:13;;;;;;;491.58;445.00;;;;;;;20.61;47.98;99505.38;301973;32;3125;-80
2023/07/28 00:35:23;;;;;;;489.90;443.58;;;;;;;20.64;47.65;99517.59;299369;32;2838;-80
2023/07/28 00:35:34;;;;;;;489.20;442.87;;;;;;;20.61;47.86;99510.72;297118;33;1346;-80
2023/07/28 00:35:44;;;;;;;492.88;446.50;;;;;;;20.62;48.09;99515.06;293151;33;1277;-80
2023/07/28 00:35:55;;;;;;;496.67;450.13;;;;;;;20.64;47.55;99512.25;294234;33;4629;-80
2023/07/28 00:36:05;;;;;;;493.08;446.73;;;;;;;20.65;47.85;99509.47;292289;33;5023;-80
2023/07/28 00:36:16;;;;;;;491.17;444.77;;;;;;;20.65;48.19;99511.28;288731;34;1280;-80
2023/07/28 00:36:26;;;;;;;492.55;446.00;;;;;;;20.67;47.64;99507.53;286952;33;6627;-80
2023/07/28 00:36:36;;;;;;;493.23;446.53;;;;;;;20.69;47.86;99510.06;287395;33;6148;-80
2023/07/28 00:36:47;;;;;;;496.73;450.02;;;;;;;20.68;47.78;99514.53;289275;34;1280;-80
2023/07/28 00:36:57;;;;;;;491.30;444.67;;;;;;;20.66;47.51;99510.31;286960;34;7389;-80
2023/07/28 00:37:08;;;;;;;487.92;441.30;;;;;;;20.66;47.75;99512.97;284313;34;5521;-80
2023/07/28 00:37:18;;;;;;;486.83;440.20;;;;;;;20.66;47.43;99510.31;283761;34;885;-81
2023/07/28 00:37:29;;;;;;;486.92;440.30;;;;;;;20.69;47.55;99515.38;282084;34;4656;-80
2023/07/28 00:37:39;;;;;;;484.03;437.47;;;;;;;20.69;47.59;99510.91;277833;35;5054;-80
2023/07/28 00:37:49;;;;;;;470.88;424.60;;;;;;;20.70;47.77;99509.94;273273;35;6684;-80
2023/07/28 00:38:01;;;;;;;465.37;419.27;;;;;;;20.69;47.77;99510.91;270662;36;1216;-80
2023/07/28 00:38:11;;;;;;;458.90;413.13;;;;;;;20.71;47.63;99505.47;268139;36;6889;-80
2023/07/28 00:40:08;;;;;;;419.84;373.53;;;;;;;20.62;47.45;99509.72;2502785;27;20483;-80
2023/07/28 00:40:18;;;;;;;406.48;362.48;;;;;;;20.62;47.66;99509.72;353013;28;1030;-79
2023/07/28 00:40:28;;;;;;;415.50;371.20;;;;;;;20.60;47.25;99509.03;350308;28;1298;-80
2023/07/28 00:40:39;;;;;;;417.13;372.77;;;;;;;20.52;47.56;99514.13;350484;28;1268;-81
2023/07/28 00:40:49;;;;;;;418.27;373.80;;;;;;;20.49;47.76;99511.72;348853;28;1358;-80
2023/07/28 00:41:00;;;;;;;421.40;376.73;;;;;;;20.49;47.85;99507.25;347646;28;734;-80
2023/07/28 00:41:10;;;;;;;422.73;377.80;;;;;;;20.54;47.83;99517.50;347510;28;1230;-80
2023/07/28 00:41:21;;;;;;;419.93;374.90;;;;;;;20.53;47.89;99510.50;348123;28;820;-80
2023/07/28 00:41:31;;;;;;;417.70;372.83;;;;;;;20.50;47.70;99508.94;346500;28;1410;-81
2023/07/28 00:41:41;;;;;;;423.47;378.37;;;;;;;20.52;47.85;99511.47;347620;28;1204;-81
2023/07/28 00:41:52;;;;;;;421.47;376.60;;;;;;;20.53;47.63;99513.16;349251;28;1432;-80
2023/07/28 00:42:02;;;;;;;424.37;379.37;;;;;;;20.53;47.67;99513.16;350324;28;1243;-80
2023/07/28 00:42:13;;;;;;;421.05;376.27;;;;;;;20.54;47.66;99505.06;351442;28;1438;-80
2023/07/28 00:42:23;;;;;;;418.87;374.23;;;;;;;20.54;47.67;99506.88;347534;28;1298;-80
2023/07/28 00:42:34;;;;;;;417.17;372.55;;;;;;;20.56;47.28;99507.59;350409;28;1247;-81
2023/07/28 00:42:45;;;;;;;418.47;373.70;;;;;;;20.57;47.83;99506.63;350399;28;1307;-80
2023/07/28 00:42:55;;;;;;;414.15;369.08;;;;;;;20.56;47.69;99507.59;347602;28;1368;-80
2023/07/28 00:43:05;;;;;;;416.50;371.40;;;;;;;20.52;47.37;99514.13;348935;28;1327;-80
2023/07/28 00:43:16;;;;;;;418.83;373.53;;;;;;;20.50;47.56;99510.75;347414;28;1283;-80
2023/07/28 00:43:26;;;;;;;419.93;374.87;;;;;;;20.46;47.75;99512.81;347426;28;1184;-80
2023/07/28 00:43:37;;;;;;;415.85;371.00;;;;;;;20.41;48.25;99511.50;348954;28;1262;-80
2023/07/28 00:43:47;;;;;;;419.90;374.97;;;;;;;20.38;48.27;99517.09;346017;28;1230;-80
2023/07/28 00:43:58;;;;;;;422.52;377.50;;;;;;;20.37;48.16;99510.88;349209;28;1150;-80
2023/07/28 00:44:08;;;;;;;420.63;375.53;;;;;;;20.38;48.22;99517.09;349315;28;844;-80
2023/07/28 00:44:18;;;;;;;412.88;368.15;;;;;;;20.37;48.07;99518.03;347888;28;1502;-80
2023/07/28 00:44:29;;;;;;;411.90;367.20;;;;;;;20.39;48.38;99513.47;347868;28;1215;-80
2023/07/28 00:44:39;;;;;;;415.65;370.77;;;;;;;20.40;48.23;99513.31;348966;28;812;-81
2023/07/28 00:44:50;;;;;;;419.43;374.17;;;;;;;20.44;47.89;99516.56;345661;28;1248;-80
2023/07/28 00:45:00;;;;;;;423.17;377.77;;;;;;;20.45;48.29;99516.44;343567;28;1234;-80
2023/07/28 00:45:11;;;;;;;426.50;380.90;;;;;;;20.47;48.04;99511.84;341274;28;1454;-80
2023/07/28 00:45:22;;;;;;;423.13;377.65;;;;;;;20.42;48.01;99513.19;340644;29;1350;-80
2023/07/28 00:45:33;;;;;;;421.57;376.03;;;;;;;20.44;47.88;99512.09;342816;28;1231;-80
2023/07/28 00:45:43;;;;;;;419.17;374.08;;;;;;;20.46;47.86;99515.47;342902;28;1377;-80
2023/07/28 00:45:53;;;;;;;417.30;372.57;;;;;;;20.47;47.96;99511.00;339417;29;1294;-80
2023/07/28 00:46:04;;;;;;;418.17;373.48;;;;;;;20.49;47.88;99511.72;342800;28;1353;-80
2023/07/28 00:46:14;;;;;;;422.10;377.23;;;;;;;20.50;47.95;99513.41;341872;28;1372;-81
2023/07/28 00:46:25;;;;;;;425.38;380.45;;;;;;;20.50;47.75;99513.41;339434;29;1258;-81
2023/07/28 00:46:35;;;;;;;423.23;378.37;;;;;;;20.52;48.07;99514.97;342532;28;1226;-81
2023/07/28 00:46:46;;;;;;;422.85;377.95;;;;;;;20.52;47.94;99514.97;342554;28;1148;-81
2023/07/28 00:46:56;;;;;;;425.40;380.37;;;;;;;20.53;48.05;99505.19;342300;28;1127;-80
2023/07/28 00:47:07;;;;;;;424.17;379.25;;;;;;;20.50;48.11;99516.06;339815;29;1471;-79
2023/07/28 00:47:17;;;;;;;420.73;375.97;;;;;;;20.48;47.72;99513.53;339515;29;885;-80
2023/07/28 00:47:28;;;;;;;426.08;381.15;;;;;;;20.47;48.04;99516.31;339928;28;1410;-80
2023/07/28 00:47:38;;;;;;;424.63;379.23;;;;;;;20.43;47.80;99509.56;339727;29;1275;-81
2023/07/28 00:47:48;;;;;;;422.87;377.37;;;;;;;20.45;47.65;99510.28;342270;28;1313;-80
2023/07/28 00:47:59;;;;;;;422.80;377.07;;;;;;;20.46;47.72;99511.97;340927;28;1419;-80
2023/07/28 00:48:13;;;;;;;420.65;375.30;;;;;;;20.47;48.06;99511.00;341010;29;900;-80
2023/07/28 00:48:25;;;;;;;420.63;375.17;;;;;;;20.45;48.02;99508.47;340762;28;1441;-79
2023/07/28 00:48:35;;;;;;;418.17;372.95;;;;;;;20.45;47.77;99512.94;341721;28;1307;-79
2023/07/28 00:48:45;;;;;;;422.50;377.38;;;;;;;20.45;47.56;99512.94;342372;28;1239;-80
2023/07/28 00:48:56;;;;;;;425.53;380.13;;;;;;;20.42;48.00;99513.19;340781;29;1915;-81
2023/07/28 00:49:06;;;;;;;428.65;383.23;;;;;;;20.43;48.09;99517.56;338474;29;1333;-79
2023/07/28 00:49:17;;;;;;;427.37;381.87;;;;;;;20.37;47.87;99513.56;338416;29;1275;-81
2023/07/28 00:49:27;;;;;;;422.23;377.05;;;;;;;20.36;48.15;99511.06;338631;29;1357;-80
2023/07/28 00:49:38;;;;;;;419.10;374.00;;;;;;;20.33;48.20;99508.66;338379;29;1314;-81
2023/07/28 00:49:48;;;;;;;417.10;372.05;;;;;;;20.33;48.14;99512.16;340644;28;1381;-80
2023/07/28 00:49:59;;;;;;;431.97;386.47;;;;;;;20.33;48.02;99513.97;340529;28;1359;-80
2023/07/28 00:50:10;;;;;;;438.47;392.70;;;;;;;20.35;48.16;99515.53;336950;29;1263;-80
2023/07/28 00:50:20;;;;;;;434.08;388.45;;;;;;;20.34;48.23;99516.50;333513;29;1522;-80
2023/07/28 00:50:30;;;;;;;425.63;380.33;;;;;;;20.32;48.10;99507.81;332693;29;1882;-80
2023/07/28 00:50:45;;;;;;;423.10;377.87;;;;;;;20.35;48.14;99507.53;332101;29;1324;-80
2023/07/28 00:50:55;;;;;;;423.30;378.27;;;;;;;20.38;48.03;99512.63;325537;30;5214;-80
2023/07/28 00:51:07;;;;;;;425.23;380.37;;;;;;;20.41;47.97;99519.50;328938;29;2090;-81
2023/07/28 00:51:17;;;;;;;424.15;379.30;;;;;;;20.42;47.98;99513.19;327630;30;1576;-80
2023/07/28 00:51:28;;;;;;;422.03;377.23;;;;;;;20.45;47.91;99518.28;329210;30;1163;-80
2023/07/28 00:51:38;;;;;;;417.50;372.85;;;;;;;20.43;48.02;99512.22;328119;30;1387;-80
2023/07/28 00:51:49;;;;;;;424.43;379.53;;;;;;;20.40;47.96;99517.81;328613;30;1057;-80
2023/07/28 00:52:00;;;;;;;428.45;383.20;;;;;;;20.39;47.66;99511.66;325445;30;1611;-80
2023/07/28 00:52:10;;;;;;;425.75;380.40;;;;;;;20.40;47.77;99517.81;322063;30;1398;-80
2023/07/28 00:52:20;;;;;;;423.07;377.67;;;;;;;20.42;47.82;99514.03;327696;30;1716;-80
2023/07/28 00:52:31;;;;;;;418.30;373.30;;;;;;;20.41;48.14;99516.84;326761;29;2263;-80